Time;durP1;ratioP1;P1;durP2;ratioP2;P2;SDS_P1;SDS_P2;PMS_P1;PMS_P2;Temp;Humidity;BMP_temperature;BMP_pressure;BME280_temperature;BME280_humidity;BME280_pressure;Samples;Min_cycle;Max_cycle;Signal;HPM_P1;HPM_P2
2022/10/06 00:00:48;;;;;;;28.67;23.90;;;;;;;18.87;100.00;100738.66;5095008;28;20068;-80
2022/10/06 00:03:14;;;;;;;28.42;23.88;;;;;;;18.87;100.00;100734.16;5093706;28;20032;-82
2022/10/06 00:05:40;;;;;;;27.17;23.30;;;;;;;18.90;100.00;100739.19;5095132;28;20027;-83
2022/10/06 00:08:06;;;;;;;37.92;26.00;;;;;;;18.90;100.00;100733.84;5094402;28;20142;-82
2022/10/06 00:10:31;;;;;;;29.90;24.98;;;;;;;18.93;100.00;100736.16;5092307;28;20023;-81
2022/10/06 00:12:57;;;;;;;31.17;24.45;;;;;;;18.93;100.00;100733.50;5094283;28;20077;-82
2022/10/06 00:15:27;;;;;;;30.92;24.80;;;;;;;18.89;100.00;100737.50;5093476;28;20165;-83
2022/10/06 00:17:53;;;;;;;32.37;25.27;;;;;;;18.80;100.00;100733.16;5094526;28;20500;-83
2022/10/06 00:20:21;;;;;;;33.03;24.60;;;;;;;18.70;100.00;100727.97;5094846;28;20384;-82
2022/10/06 00:22:48;;;;;;;27.55;24.45;;;;;;;18.66;100.00;100731.16;5095681;28;20357;-83
2022/10/06 00:25:17;;;;;;;30.45;25.27;;;;;;;18.60;100.00;100731.81;5094426;28;20112;-83
2022/10/06 00:27:48;;;;;;;26.00;23.25;;;;;;;18.64;100.00;100733.16;5094761;28;20482;-83
2022/10/06 00:30:18;;;;;;;29.98;23.60;;;;;;;18.66;100.00;100725.81;5094143;28;20036;-83
2022/10/06 00:32:56;;;;;;;34.92;25.17;;;;;;;18.70;100.00;100733.31;5094385;28;20380;-82
2022/10/06 00:35:26;;;;;;;31.08;26.48;;;;;;;18.73;100.00;100726.81;5093572;28;20065;-83
2022/10/06 00:37:52;;;;;;;;;;;;;;;18.76;100.00;100731.81;5094947;28;20423;-83
2022/10/06 00:40:18;;;;;;;30.08;25.63;;;;;;;18.74;100.00;100726.63;5094298;28;20450;-83
2022/10/06 00:43:04;;;;;;;34.45;25.23;;;;;;;18.78;100.00;100732.50;5094668;28;20115;-81
2022/10/06 00:45:40;;;;;;;33.67;26.25;;;;;;;18.79;100.00;100736.84;5094182;28;20143;-80
2022/10/06 00:48:24;;;;;;;34.47;27.98;;;;;;;18.78;100.00;100732.50;5093725;28;20051;-79
2022/10/06 00:50:54;;;;;;;33.83;26.60;;;;;;;18.79;100.00;100726.16;5091874;28;20365;-80
2022/10/06 00:53:21;;;;;;;34.95;27.20;;;;;;;18.78;100.00;100724.47;5091355;28;20055;-81
2022/10/06 00:55:47;;;;;;;31.50;26.45;;;;;;;18.79;100.00;100720.81;5094087;28;20437;-80
2022/10/06 00:58:13;;;;;;;32.30;26.42;;;;;;;18.75;100.00;100717.63;5091319;28;20040;-81
2022/10/06 01:00:43;;;;;;;36.05;29.75;;;;;;;18.71;100.00;100716.28;5094194;28;20024;-81
2022/10/06 01:03:17;;;;;;;36.50;29.85;;;;;;;18.61;100.00;100710.28;5090316;28;20383;-80
2022/10/06 01:05:48;;;;;;;35.38;28.67;;;;;;;18.59;100.00;100711.44;5091235;28;20434;-79
2022/10/06 01:08:16;;;;;;;32.35;25.85;;;;;;;18.61;100.00;100709.44;5089046;28;20426;-81
2022/10/06 01:10:42;;;;;;;34.38;28.00;;;;;;;18.61;100.00;100706.78;5090686;28;20020;-81
2022/10/06 01:13:10;;;;;;;37.50;28.55;;;;;;;18.63;100.00;100710.94;5090544;28;20028;-82
2022/10/06 01:15:43;;;;;;;38.75;29.60;;;;;;;18.64;100.00;100695.72;5088359;28;20020;-82
2022/10/06 01:18:12;;;;;;;38.53;30.05;;;;;;;18.67;100.00;100696.22;5090791;28;20032;-82
2022/10/06 01:20:49;;;;;;;43.30;29.38;;;;;;;18.68;100.00;100697.06;5089401;28;20332;-83
2022/10/06 01:23:15;;;;;;;38.92;29.45;;;;;;;18.71;100.00;100694.06;5089787;28;20040;-81
2022/10/06 01:25:41;;;;;;;37.88;30.55;;;;;;;18.73;100.00;100689.41;5094496;28;20026;-80
2022/10/06 01:28:07;;;;;;;33.35;27.67;;;;;;;18.74;100.00;100686.53;5094040;28;20111;-80
2022/10/06 01:30:51;;;;;;;42.28;30.50;;;;;;;18.76;100.00;100684.53;5094629;28;20408;-81
2022/10/06 01:33:19;;;;;;;36.63;29.48;;;;;;;18.77;100.00;100686.22;5090324;28;20028;-81
2022/10/06 01:35:48;;;;;;;40.88;30.52;;;;;;;18.76;100.00;100683.69;5094094;28;20419;-81
2022/10/06 01:38:15;;;;;;;38.65;30.50;;;;;;;18.76;100.00;100683.69;5092157;28;20089;-81
2022/10/06 01:40:43;;;;;;;34.30;29.70;;;;;;;18.77;100.00;100674.69;5094118;28;20066;-81
2022/10/06 01:43:09;;;;;;;36.65;29.65;;;;;;;18.74;100.00;100681.19;5093498;28;20086;-81
2022/10/06 01:45:34;;;;;;;36.17;28.05;;;;;;;18.74;100.00;100673.16;5092912;28;20040;-81
2022/10/06 01:48:00;;;;;;;32.58;27.92;;;;;;;18.74;100.00;100680.34;5094443;28;20040;-81
2022/10/06 01:50:26;;;;;;;31.88;26.10;;;;;;;18.74;100.00;100675.84;5092664;28;20032;-81
2022/10/06 01:52:51;;;;;;;32.05;25.77;;;;;;;18.73;100.00;100674.16;5094261;28;20058;-83
2022/10/06 01:55:18;;;;;;;31.00;24.30;;;;;;;18.73;100.00;100668.00;5077646;22;20084;-81
2022/10/06 01:57:43;;;;;;;35.72;26.70;;;;;;;18.70;100.00;100673.66;5042710;28;20033;-80
2022/10/06 02:00:11;;;;;;;32.67;26.80;;;;;;;18.63;100.00;100678.84;5048975;28;20033;-81
2022/10/06 02:02:41;;;;;;;34.28;26.25;;;;;;;18.58;100.00;100669.66;5045871;28;20021;-81
2022/10/06 02:05:07;;;;;;;32.08;27.35;;;;;;;18.51;100.00;100673.97;5049936;28;20495;-78
2022/10/06 02:07:35;;;;;;;31.38;25.95;;;;;;;18.44;100.00;100675.66;5062465;28;20025;-82
2022/10/06 02:10:01;;;;;;;30.80;25.38;;;;;;;18.39;100.00;100678.81;5046627;28;20039;-81
2022/10/06 02:12:30;;;;;;;29.08;25.85;;;;;;;18.36;100.00;100684.50;5045469;28;20199;-81
2022/10/06 02:14:56;;;;;;;32.80;26.55;;;;;;;18.37;100.00;100678.16;5046339;28;20082;-82
2022/10/06 02:17:22;;;;;;;29.83;26.30;;;;;;;18.30;100.00;100672.63;5043939;28;20029;-81
2022/10/06 02:19:48;;;;;;;29.00;25.92;;;;;;;18.25;100.00;100674.97;5044553;28;20477;-80
2022/10/06 02:22:14;;;;;;;31.30;25.83;;;;;;;18.20;100.00;100677.28;5047372;28;20062;-80
2022/10/06 02:24:39;;;;;;;37.95;27.92;;;;;;;18.12;100.00;100674.59;5047594;28;20044;-81
2022/10/06 02:27:05;;;;;;;33.65;27.92;;;;;;;17.94;100.00;100677.41;5047097;28;20056;-80
2022/10/06 02:29:31;;;;;;;34.47;29.05;;;;;;;17.91;100.00;100671.53;5043845;28;20057;-80
2022/10/06 02:31:57;;;;;;;37.10;29.95;;;;;;;17.86;100.00;100673.88;5046729;28;20482;-80
2022/10/06 02:34:23;;;;;;;41.20;32.38;;;;;;;17.81;100.00;100681.53;5047340;28;20091;-80
2022/10/06 02:36:48;;;;;;;43.72;34.63;;;;;;;17.74;100.00;100675.16;5047211;28;20033;-79
2022/10/06 02:39:14;;;;;;;48.42;36.08;;;;;;;17.65;100.00;100670.81;5052132;28;20032;-82
2022/10/06 02:41:39;;;;;;;43.85;31.70;;;;;;;17.63;100.00;100668.28;5053471;28;20076;-82
2022/10/06 02:44:05;;;;;;;46.15;35.22;;;;;;;17.61;100.00;100669.47;5051299;28;20040;-80
2022/10/06 02:46:31;;;;;;;47.65;37.70;;;;;;;17.50;100.00;100668.69;5047687;28;20548;-81
2022/10/06 02:48:57;;;;;;;48.00;34.63;;;;;;;17.50;100.00;100667.84;5051701;28;20033;-82
2022/10/06 02:51:23;;;;;;;53.85;39.83;;;;;;;17.40;100.00;100667.16;5051593;28;20428;-80
2022/10/06 02:53:49;;;;;;;55.03;39.38;;;;;;;17.35;100.00;100675.63;5054122;28;20147;-81
2022/10/06 02:56:24;;;;;;;48.63;38.03;;;;;;;17.36;100.00;100671.97;5054703;28;20033;-81
2022/10/06 02:58:51;;;;;;;46.50;36.95;;;;;;;17.34;100.00;100673.97;5051002;28;20499;-83
2022/10/06 03:01:26;;;;;;;49.85;38.80;;;;;;;17.33;100.00;100672.28;5047429;28;21790;-79
2022/10/06 03:03:54;;;;;;;54.58;38.63;;;;;;;17.33;100.00;100666.94;5047903;28;20570;-84
2022/10/06 03:06:25;;;;;;;52.17;38.42;;;;;;;17.34;100.00;100662.44;5051736;28;20052;-83
2022/10/06 03:09:10;;;;;;;47.75;36.47;;;;;;;17.30;100.00;100672.63;5043189;28;20069;-81
2022/10/06 03:11:41;;;;;;;47.50;36.20;;;;;;;17.33;100.00;100669.63;5045509;28;20056;-81
2022/10/06 03:14:08;;;;;;;46.55;35.92;;;;;;;17.31;100.00;100668.97;5040349;28;20060;-81
2022/10/06 03:16:37;;;;;;;48.35;37.45;;;;;;;17.34;100.00;100679.31;5047723;28;20060;-82
2022/10/06 03:19:06;;;;;;;43.22;36.55;;;;;;;17.35;100.00;100686.31;5043917;28;20025;-82
2022/10/06 03:21:37;;;;;;;44.45;35.67;;;;;;;17.35;100.00;100680.13;5028636;28;20503;-83
2022/10/06 03:24:03;;;;;;;47.13;36.03;;;;;;;17.35;100.00;100682.81;5047657;28;20044;-82
2022/10/06 03:26:31;;;;;;;49.67;38.38;;;;;;;17.36;100.00;100684.50;5044324;28;20029;-82
2022/10/06 03:28:57;;;;;;;48.00;35.58;;;;;;;17.35;100.00;100683.66;5042077;28;20037;-81
2022/10/06 03:31:24;;;;;;;47.20;36.25;;;;;;;17.37;100.00;100684.34;5041567;28;20397;-82
2022/10/06 03:33:51;;;;;;;47.72;37.50;;;;;;;17.34;100.00;100679.31;5044084;28;20475;-82
2022/10/06 03:36:19;;;;;;;45.03;35.78;;;;;;;17.33;100.00;100685.63;5043048;28;20116;-82
2022/10/06 03:38:44;;;;;;;42.58;35.22;;;;;;;17.27;100.00;100686.25;5043584;28;20493;-80
2022/10/06 03:41:16;;;;;;;45.17;35.55;;;;;;;17.25;100.00;100690.94;5041086;28;20128;-82
2022/10/06 03:43:43;;;;;;;45.55;34.50;;;;;;;17.19;100.00;100692.41;5047054;28;20107;-81
2022/10/06 03:46:11;;;;;;;45.38;35.78;;;;;;;17.10;100.00;100687.16;5046874;28;20144;-82
2022/10/06 03:48:36;;;;;;;42.50;33.38;;;;;;;17.07;100.00;100683.00;5062705;28;20036;-81
2022/10/06 03:51:07;;;;;;;40.83;32.67;;;;;;;17.05;100.00;100684.13;5041617;28;20029;-81
2022/10/06 03:53:33;;;;;;;37.42;32.92;;;;;;;17.02;100.00;100697.78;5043925;28;20033;-82
2022/10/06 03:56:04;;;;;;;39.33;32.05;;;;;;;17.03;100.00;100684.28;5046351;28;20022;-82
2022/10/06 03:58:30;;;;;;;;;;;;;;;17.04;100.00;100687.78;5042986;28;20033;-81
2022/10/06 04:01:00;;;;;;;45.63;33.00;;;;;;;17.07;100.00;100692.81;5043908;28;19917;-81
2022/10/06 04:03:25;;;;;;;43.50;32.78;;;;;;;17.07;100.00;100687.50;5040015;28;20037;-80
2022/10/06 04:05:56;;;;;;;42.28;34.05;;;;;;;17.07;100.00;100695.50;5044443;28;20381;-79
2022/10/06 04:08:23;;;;;;;42.60;33.67;;;;;;;17.04;100.00;100693.13;5043612;28;20105;-81
2022/10/06 04:10:49;;;;;;;40.42;32.28;;;;;;;17.03;100.00;100702.09;5037916;28;20034;-80
2022/10/06 04:13:17;;;;;;;40.63;31.75;;;;;;;17.02;100.00;100706.59;5027671;28;20036;-80
2022/10/06 04:15:43;;;;;;;38.38;31.52;;;;;;;16.98;100.00;100709.75;5041139;28;20032;-81
2022/10/06 04:18:10;;;;;;;37.92;30.40;;;;;;;16.92;100.00;100705.03;5041771;28;20064;-81
2022/10/06 04:20:36;;;;;;;42.50;33.40;;;;;;;16.82;100.00;100709.63;5045970;28;20369;-80
2022/10/06 04:23:02;;;;;;;37.80;31.88;;;;;;;16.75;100.00;100707.59;5042572;28;20036;-80
2022/10/06 04:25:28;;;;;;;39.75;31.42;;;;;;;16.73;100.00;100706.88;5040513;28;20030;-80
2022/10/06 04:27:53;;;;;;;37.20;31.05;;;;;;;16.69;100.00;100705.53;5043540;28;20032;-83
2022/10/06 04:30:19;;;;;;;40.10;31.65;;;;;;;16.64;100.00;100718.50;5042829;28;20033;-84
2022/10/06 04:32:45;;;;;;;41.67;31.08;;;;;;;16.60;100.00;100710.97;5041469;28;20025;-83
2022/10/06 04:35:11;;;;;;;38.95;31.88;;;;;;;16.56;100.00;100710.38;5026263;28;20453;-83
2022/10/06 04:37:36;;;;;;;43.50;32.92;;;;;;;16.51;100.00;100720.66;5040859;28;20103;-83
2022/10/06 04:40:02;;;;;;;47.25;33.88;;;;;;;16.48;100.00;100720.13;5042629;28;20067;-79
2022/10/06 04:42:30;;;;;;;44.65;35.17;;;;;;;16.45;100.00;100713.28;5040811;28;20363;-84
2022/10/06 04:44:55;;;;;;;48.85;35.80;;;;;;;16.46;100.00;100714.97;5041253;28;20040;-76
2022/10/06 04:47:21;;;;;;;39.22;32.47;;;;;;;16.45;100.00;100723.09;5038602;28;20072;-80
2022/10/06 04:49:47;;;;;;;42.00;33.22;;;;;;;16.43;100.00;100720.59;5042630;28;20044;-79
2022/10/06 04:52:13;;;;;;;42.35;34.75;;;;;;;16.37;100.00;100726.53;5040121;28;20466;-79
2022/10/06 04:54:39;;;;;;;46.55;34.72;;;;;;;16.35;100.00;100724.03;5040286;28;20037;-79
2022/10/06 04:57:07;;;;;;;44.28;33.95;;;;;;;16.35;100.00;100728.50;5041146;28;20037;-78
2022/10/06 05:02:18;;;;;;;43.80;35.13;;;;;;;16.31;100.00;100722.66;5041706;28;20033;-79
2022/10/06 05:04:45;;;;;;;51.83;37.72;;;;;;;16.28;100.00;100727.44;5027904;28;20034;-80
2022/10/06 05:07:11;;;;;;;52.05;38.20;;;;;;;16.27;100.00;100725.75;5040804;28;20028;-81
2022/10/06 05:09:37;;;;;;;46.88;37.80;;;;;;;16.26;100.00;100726.72;5039582;28;20038;-82
2022/10/06 05:12:03;;;;;;;48.17;37.53;;;;;;;16.21;100.00;100726.34;5044660;28;20044;-81
2022/10/06 05:14:32;;;;;;;51.28;37.63;;;;;;;16.21;100.00;100731.69;5041436;28;20037;-80
2022/10/06 05:16:58;;;;;;;48.05;37.80;;;;;;;16.18;100.00;100732.84;5044641;28;20037;-82
2022/10/06 05:19:24;;;;;;;56.88;39.70;;;;;;;16.20;100.00;100735.34;5043083;28;20033;-81
2022/10/06 05:21:49;;;;;;;47.45;38.17;;;;;;;16.18;100.00;100732.00;5047706;28;20044;-78
2022/10/06 05:24:19;;;;;;;50.83;39.42;;;;;;;16.14;100.00;100730.63;5046683;28;20029;-81
2022/10/06 05:26:44;;;;;;;54.35;40.33;;;;;;;16.14;100.00;100727.97;5045446;28;20112;-80
2022/10/06 05:29:12;;;;;;;51.75;38.80;;;;;;;16.14;100.00;100726.09;5043225;28;20033;-77
2022/10/06 05:31:39;;;;;;;52.28;40.30;;;;;;;16.13;100.00;100729.78;5046819;28;20036;-77
2022/10/06 05:34:06;;;;;;;60.45;41.33;;;;;;;16.06;100.00;100728.69;5046438;28;20215;-80
2022/10/06 05:36:33;;;;;;;56.95;40.58;;;;;;;16.02;100.00;100737.97;5049745;28;20031;-77
2022/10/06 05:39:00;;;;;;;51.42;38.78;;;;;;;15.90;100.00;100739.97;5049688;28;20128;-78
2022/10/06 05:41:30;;;;;;;54.17;39.30;;;;;;;15.86;100.00;100738.63;5063890;28;20036;-76
2022/10/06 05:43:59;;;;;;;53.83;38.35;;;;;;;15.83;100.00;100738.94;5065463;28;20041;-76
2022/10/06 05:46:28;;;;;;;51.65;37.47;;;;;;;15.85;100.00;100747.56;5048079;28;20028;-78
2022/10/06 05:48:58;;;;;;;52.70;39.80;;;;;;;15.85;100.00;100752.91;5065640;28;20021;-77
2022/10/06 05:51:28;;;;;;;49.35;37.60;;;;;;;15.88;100.00;100752.63;5049894;28;20067;-76
2022/10/06 05:53:54;;;;;;;50.03;38.75;;;;;;;15.90;100.00;100760.47;5066478;28;20075;-79
2022/10/06 05:56:26;;;;;;;55.08;39.65;;;;;;;15.92;100.00;100759.31;5049533;28;20040;-78
2022/10/06 05:58:53;;;;;;;54.60;40.20;;;;;;;15.88;100.00;100757.94;5043763;28;20029;-77
2022/10/06 06:01:30;;;;;;;54.97;39.58;;;;;;;15.86;100.00;100765.22;5044839;28;20128;-79
2022/10/06 06:04:05;;;;;;;50.55;39.70;;;;;;;15.75;100.00;100761.91;5046324;28;20554;-83
2022/10/06 06:06:37;;;;;;;56.15;40.40;;;;;;;15.75;100.00;100773.41;5047272;28;20062;-80
2022/10/06 06:09:10;;;;;;;54.22;41.03;;;;;;;15.71;100.00;100771.19;5051464;28;20528;-79
2022/10/06 06:11:39;;;;;;;57.60;41.30;;;;;;;15.67;100.00;100770.63;5029608;28;20355;-80
2022/10/06 06:14:07;;;;;;;58.13;40.75;;;;;;;15.68;100.00;100774.97;5048475;28;20036;-80
2022/10/06 06:16:35;;;;;;;57.75;42.95;;;;;;;15.71;100.00;100780.00;5046818;28;20040;-80
2022/10/06 06:19:01;;;;;;;54.45;40.70;;;;;;;15.74;100.00;100774.38;5045020;28;20107;-79
2022/10/06 06:21:28;;;;;;;56.53;41.42;;;;;;;15.80;100.00;100781.78;5044698;28;20194;-78
2022/10/06 06:23:54;;;;;;;61.33;43.03;;;;;;;15.80;100.00;100787.09;5066410;28;20057;-79
2022/10/06 06:26:28;;;;;;;68.65;45.20;;;;;;;15.64;100.00;100781.56;5038939;28;20459;-80
2022/10/06 06:29:01;;;;;;;62.95;44.70;;;;;;;15.71;100.00;100788.00;5076991;28;20477;-79
2022/10/06 06:31:38;;;;;;;66.03;46.40;;;;;;;15.73;100.00;100793.16;5042926;28;20057;-78
2022/10/06 06:34:05;;;;;;;59.13;42.88;;;;;;;15.59;100.00;100794.47;5046863;28;20424;-77
2022/10/06 06:36:39;;;;;;;61.20;43.25;;;;;;;15.55;100.00;100799.22;5042908;28;20496;-79
2022/10/06 06:39:10;;;;;;;54.08;40.75;;;;;;;15.61;100.00;100792.50;5046669;28;20032;-78
2022/10/06 06:41:38;;;;;;;56.28;40.05;;;;;;;15.73;100.00;100796.66;5039683;28;20041;-79
2022/10/06 06:44:39;;;;;;;56.80;39.47;;;;;;;15.85;100.00;100800.81;5039686;28;20037;-79
2022/10/06 06:47:16;;;;;;;55.90;40.25;;;;;;;15.95;100.00;100804.28;5047421;28;20044;-79
2022/10/06 06:49:42;;;;;;;52.13;38.92;;;;;;;15.96;100.00;100803.28;5049089;28;20220;-81
2022/10/06 06:52:08;;;;;;;53.47;36.65;;;;;;;15.83;100.00;100808.13;5046562;28;20520;-80
2022/10/06 06:54:36;;;;;;;51.83;37.85;;;;;;;15.83;100.00;100810.78;5045713;28;20045;-80
2022/10/06 06:57:07;;;;;;;51.42;36.55;;;;;;;15.95;100.00;100812.28;5043206;28;20489;-80
2022/10/06 06:59:32;;;;;;;47.45;36.05;;;;;;;16.10;100.00;100819.75;5044556;28;20119;-80
2022/10/06 07:01:59;;;;;;;46.90;35.67;;;;;;;16.21;100.00;100822.22;5045109;28;20393;-80
2022/10/06 07:04:26;;;;;;;49.92;35.90;;;;;;;16.30;100.00;100816.03;5044210;28;20036;-80
2022/10/06 07:06:56;;;;;;;45.95;35.17;;;;;;;16.37;100.00;100823.25;5046009;28;20374;-79
2022/10/06 07:09:26;;;;;;;46.88;34.33;;;;;;;16.48;100.00;100832.88;5043157;28;20048;-80
2022/10/06 07:11:57;;;;;;;46.30;34.00;;;;;;;16.51;100.00;100835.22;5045470;28;20025;-80
2022/10/06 07:14:23;;;;;;;44.67;33.45;;;;;;;16.59;100.00;100838.03;5042619;28;20990;-80
2022/10/06 07:25:21;;;;;;;45.28;32.00;;;;;;;16.72;100.00;100843.84;5044695;28;20120;-82
2022/10/06 07:27:52;;;;;;;55.10;38.25;;;;;;;16.83;100.00;100844.59;5046243;28;20033;-79
2022/10/06 07:30:27;;;;;;;48.17;36.22;;;;;;;16.86;100.00;100844.28;5043773;28;20552;-80
2022/10/06 07:32:59;;;;;;;47.42;36.03;;;;;;;16.91;100.00;100842.84;5045520;28;20033;-80
2022/10/06 07:35:25;;;;;;;58.58;37.90;;;;;;;17.00;100.00;100838.44;5040150;28;20033;-80
2022/10/06 07:37:52;;;;;;;57.15;37.90;;;;;;;17.12;100.00;100839.88;5043952;28;20074;-80
2022/10/06 07:40:18;;;;;;;48.35;37.55;;;;;;;17.23;100.00;100834.28;5024853;28;20085;-79
2022/10/06 07:42:52;;;;;;;53.10;37.08;;;;;;;17.33;100.00;100837.69;5045643;28;20124;-80
2022/10/06 07:45:43;;;;;;;47.97;36.00;;;;;;;17.46;100.00;100837.28;5040581;28;20124;-80
2022/10/06 07:48:16;;;;;;;48.10;37.08;;;;;;;17.56;100.00;100844.19;5048159;28;20052;-80
2022/10/06 07:50:46;;;;;;;43.70;35.03;;;;;;;17.59;100.00;100854.59;5044043;28;20117;-80
2022/10/06 07:53:13;;;;;;;48.00;35.50;;;;;;;17.66;100.00;100859.34;5060411;28;20032;-81
2022/10/06 07:55:45;;;;;;;52.60;38.03;;;;;;;17.75;100.00;100863.72;5055802;28;20045;-80
2022/10/06 07:58:25;;;;;;;49.35;37.78;;;;;;;17.77;100.00;100862.56;5057725;28;20037;-79
2022/10/06 08:00:53;;;;;;;51.78;38.95;;;;;;;17.82;100.00;100864.75;5047530;28;20032;-80
2022/10/06 08:03:20;;;;;;;47.83;37.58;;;;;;;17.83;100.00;100866.44;5046664;28;20531;-80
2022/10/06 08:05:55;;;;;;;47.20;37.90;;;;;;;17.87;100.00;100860.63;5044023;28;20044;-80
2022/10/06 08:08:21;;;;;;;53.67;40.28;;;;;;;17.77;100.00;100872.41;5045144;28;20025;-79
2022/10/06 08:10:52;;;;;;;56.67;41.08;;;;;;;17.83;100.00;100872.63;5043695;28;20037;-79
2022/10/06 08:13:18;;;;;;;59.13;43.22;;;;;;;17.88;100.00;100869.47;5046033;28;20029;-78
2022/10/06 08:15:44;;;;;;;66.57;47.63;;;;;;;17.90;100.00;100867.50;5042830;28;20077;-79
2022/10/06 08:18:09;;;;;;;59.08;45.03;;;;;;;17.97;100.00;100868.50;5046300;28;20021;-79
2022/10/06 08:20:35;;;;;;;63.72;47.55;;;;;;;18.03;100.00;100883.91;5046360;28;20462;-79
2022/10/06 08:23:00;;;;;;;69.75;47.80;;;;;;;18.02;100.00;100880.41;5043617;28;20032;-79
2022/10/06 08:25:26;;;;;;;60.92;45.10;;;;;;;18.07;100.00;100885.28;5047015;28;20033;-79
2022/10/06 08:27:51;;;;;;;65.55;44.85;;;;;;;18.16;100.00;100886.16;5044108;28;20025;-80
2022/10/06 08:30:17;;;;;;;60.50;45.25;;;;;;;18.21;100.00;100887.34;5045494;28;20484;-80
2022/10/06 08:32:42;;;;;;;59.05;44.90;;;;;;;18.11;100.00;100891.97;5043901;28;20466;-79
2022/10/06 08:35:09;;;;;;;62.80;45.47;;;;;;;18.13;100.00;100887.31;5045980;28;20041;-81
2022/10/06 08:37:35;;;;;;;58.03;43.38;;;;;;;18.22;100.00;100883.69;5041070;28;20021;-78
2022/10/06 08:40:00;;;;;;;64.65;44.70;;;;;;;18.24;100.00;100892.38;5050941;28;20048;-80
2022/10/06 08:42:38;;;;;;;60.17;44.38;;;;;;;18.33;100.00;100885.22;5044112;28;20139;-80
2022/10/06 08:45:43;;;;;;;63.05;44.95;;;;;;;18.40;100.00;100892.44;5042354;28;20025;-80
2022/10/06 08:48:12;;;;;;;60.10;45.03;;;;;;;18.40;100.00;100891.59;5046255;28;20056;-79
2022/10/06 08:50:53;;;;;;;56.47;44.63;;;;;;;18.48;100.00;100898.84;5042823;28;20025;-80
2022/10/06 08:53:27;;;;;;;64.20;45.70;;;;;;;18.53;100.00;100891.16;5046736;28;20400;-80
2022/10/06 08:56:04;;;;;;;59.13;45.55;;;;;;;18.60;100.00;100886.88;5043532;28;20045;-79
2022/10/06 08:58:51;;;;;;;60.28;46.10;;;;;;;18.63;100.00;100886.53;5041960;28;20033;-79
2022/10/06 09:01:32;;;;;;;64.07;45.90;;;;;;;18.72;100.00;100896.28;5070443;28;20120;-79
2022/10/06 09:04:02;;;;;;;;;;;;;;;18.80;100.00;100893.59;5044032;28;20036;-79
2022/10/06 09:06:37;;;;;;;67.07;47.17;;;;;;;18.89;100.00;100887.28;5043694;28;19920;-79
2022/10/06 09:09:40;;;;;;;64.63;46.88;;;;;;;18.97;100.00;100889.97;5042058;28;20087;-79
2022/10/06 09:12:48;;;;;;;67.57;47.67;;;;;;;19.07;100.00;100896.00;5070564;28;20509;-81
2022/10/06 09:15:13;;;;;;;61.63;45.67;;;;;;;19.16;100.00;100894.16;5042726;28;20120;-79
2022/10/06 09:17:49;;;;;;;64.13;47.28;;;;;;;19.23;100.00;100901.38;5038349;28;20033;-77
2022/10/06 09:20:58;;;;;;;65.20;47.58;;;;;;;19.31;100.00;100897.03;5036010;28;20036;-78
2022/10/06 09:23:47;;;;;;;67.90;48.78;;;;;;;19.40;100.00;100901.38;5020748;28;20569;-79
2022/10/06 09:26:16;;;;;;;66.72;50.80;;;;;;;19.44;100.00;100892.84;5052824;28;20398;-78
2022/10/06 09:28:45;;;;;;;67.25;48.28;;;;;;;19.49;100.00;100892.41;5037053;28;20072;-78
2022/10/06 09:31:38;;;;;;;76.18;52.75;;;;;;;19.55;100.00;100891.72;5041047;28;20064;-78
2022/10/06 09:34:22;;;;;;;68.93;48.63;;;;;;;19.59;100.00;100885.00;5056667;28;20049;-79
2022/10/06 09:37:04;;;;;;;66.18;47.30;;;;;;;19.63;100.00;100878.31;5041839;28;20029;-78
2022/10/06 09:39:35;;;;;;;64.30;47.83;;;;;;;19.67;100.00;100877.00;5045942;28;20041;-79
2022/10/06 09:42:12;;;;;;;71.30;49.08;;;;;;;19.74;100.00;100882.47;5048427;28;20028;-79
2022/10/06 09:44:50;;;;;;;70.05;48.30;;;;;;;19.78;100.00;100873.94;5044477;28;20504;-78
2022/10/06 09:47:31;;;;;;;66.97;49.50;;;;;;;19.82;100.00;100877.13;5050049;28;20033;-79
2022/10/06 09:50:26;;;;;;;65.45;47.65;;;;;;;19.89;100.00;100875.44;5048660;28;20027;-81
2022/10/06 09:53:02;;;;;;;64.28;47.95;;;;;;;19.94;100.00;100873.91;5052251;28;20040;-80
2022/10/06 09:55:50;;;;;;;67.63;49.00;;;;;;;19.99;100.00;100874.22;5044708;28;20058;-78
2022/10/06 09:58:22;;;;;;;62.60;47.63;;;;;;;20.04;100.00;100874.53;5045979;28;20036;-79
2022/10/06 10:01:04;;;;;;;67.85;48.20;;;;;;;20.10;100.00;100872.19;5045930;28;20412;-79
2022/10/06 10:03:44;;;;;;;65.85;47.50;;;;;;;20.15;100.00;100869.81;5047019;28;20354;-80
2022/10/06 10:06:28;;;;;;;72.70;51.30;;;;;;;20.20;100.00;100870.16;5043780;28;20097;-79
2022/10/06 10:09:18;;;;;;;66.20;48.55;;;;;;;20.20;100.00;100867.47;5047334;28;20056;-80
2022/10/06 10:14:35;;;;;;;67.45;50.75;;;;;;;20.27;100.00;100868.44;5043321;28;20118;-79
2022/10/06 10:17:21;;;;;;;69.93;49.55;;;;;;;20.30;100.00;100868.94;5046378;28;20044;-80
2022/10/06 10:19:53;;;;;;;72.75;51.85;;;;;;;20.36;100.00;100872.78;5046520;28;20119;-80
2022/10/06 10:22:23;;;;;;;70.10;51.58;;;;;;;20.34;100.00;100870.28;5049043;28;20091;-80
2022/10/06 10:24:58;;;;;;;76.63;54.00;;;;;;;20.34;100.00;100864.09;5049118;28;20389;-80
2022/10/06 10:27:44;;;;;;;70.47;51.35;;;;;;;20.39;100.00;100865.22;5046235;28;20388;-79
2022/10/06 10:30:13;;;;;;;65.28;50.40;;;;;;;20.48;100.00;100866.03;5044905;28;20035;-79
2022/10/06 10:32:46;;;;;;;66.30;49.08;;;;;;;20.55;100.00;100861.66;5046361;28;20040;-79
2022/10/06 10:35:20;;;;;;;68.65;50.17;;;;;;;20.63;100.00;100869.63;5045575;28;20120;-79
2022/10/06 10:37:52;;;;;;;64.00;47.75;;;;;;;20.66;100.00;100863.94;5045626;28;20040;-79
2022/10/06 10:40:29;;;;;;;63.42;46.90;;;;;;;20.68;100.00;100861.06;5050747;28;20021;-80
2022/10/06 10:43:09;;;;;;;65.43;47.65;;;;;;;20.70;100.00;100859.88;5045589;28;20120;-80
2022/10/06 10:45:42;;;;;;;68.95;48.47;;;;;;;20.75;100.00;100857.50;5048429;28;20731;-79
2022/10/06 10:48:57;;;;;;;57.55;42.40;;;;;;;20.82;100.00;100858.47;5049282;28;20108;-79
2022/10/06 10:51:31;;;;;;;58.85;43.33;;;;;;;20.85;100.00;100858.09;5041310;28;20045;-80
2022/10/06 10:54:02;;;;;;;57.65;41.60;;;;;;;20.91;100.00;100851.19;5044655;28;20053;-80
2022/10/06 10:56:31;;;;;;;54.50;41.03;;;;;;;20.93;100.00;100859.06;5047152;28;20032;-80
2022/10/06 10:59:26;;;;;;;46.70;34.03;;;;;;;20.92;100.00;100857.38;5044035;28;20045;-80
2022/10/06 11:02:18;;;;;;;44.75;33.83;;;;;;;20.99;100.00;100863.72;5050716;28;20049;-79
2022/10/06 11:04:49;;;;;;;52.35;38.67;;;;;;;21.02;100.00;100855.31;5044269;28;20124;-80
2022/10/06 11:07:14;;;;;;;;;;;;;;;21.07;100.00;100855.63;5044152;28;20125;-79
2022/10/06 11:09:54;;;;;;;51.90;35.78;;;;;;;21.18;100.00;100852.53;5046077;28;20007;-80
2022/10/06 11:12:38;;;;;;;50.47;36.83;;;;;;;21.25;100.00;100845.44;5044405;28;20037;-80
2022/10/06 11:15:18;;;;;;;44.83;34.65;;;;;;;21.36;100.00;100842.31;5047217;28;20116;-79
2022/10/06 11:17:45;;;;;;;43.55;30.77;;;;;;;21.43;100.00;100840.59;5044198;28;20489;-80
2022/10/06 11:20:29;;;;;;;40.38;31.52;;;;;;;21.51;100.00;100826.22;5046490;28;20025;-80
2022/10/06 11:23:32;;;;;;;38.05;29.35;;;;;;;21.65;100.00;100828.94;5045492;28;20044;-80
2022/10/06 11:26:09;;;;;;;39.13;30.27;;;;;;;21.80;100.00;100834.31;5043309;28;20087;-80
2022/10/06 11:28:57;;;;;;;39.83;30.17;;;;;;;21.88;100.00;100828.88;5044920;28;20033;-80
2022/10/06 11:31:55;;;;;;;41.50;30.20;;;;;;;21.97;100.00;100816.22;5042949;28;20041;-80
2022/10/06 11:34:20;;;;;;;37.30;27.27;;;;;;;22.02;100.00;100819.16;5044081;28;20075;-80